Time;durP1;ratioP1;P1;durP2;ratioP2;P2;SDS_P1;SDS_P2;PMS_P1;PMS_P2;Temp;Humidity;BMP_temperature;BMP_pressure;BME280_temperature;BME280_humidity;BME280_pressure;Samples;Min_cycle;Max_cycle;Signal;HPM_P1;HPM_P2
2022/01/01 00:01:24;;;;;;;;;;;13.60;99.90;;;;;;5110105;28;19965;-77
2022/01/01 00:03:51;;;;;;;;;;;13.50;99.90;;;;;;5110802;28;20344;-77
2022/01/01 00:06:16;;;;;;;;;;;13.60;99.90;;;;;;5110284;28;19912;-78
2022/01/01 00:08:42;;;;;;;;;;;13.50;99.90;;;;;;5113333;28;20364;-77
2022/01/01 00:11:07;;;;;;;;;;;13.50;99.90;;;;;;5113335;28;19915;-78
2022/01/01 00:13:33;;;;;;;;;;;13.60;99.90;;;;;;5115593;28;19987;-78
2022/01/01 00:15:59;;;;;;;;;;;13.50;99.90;;;;;;5115380;28;19908;-78
2022/01/01 00:18:24;;;;;;;;;;;13.50;99.90;;;;;;5115139;28;19968;-78
2022/01/01 00:20:50;;;;;;;;;;;13.50;99.90;;;;;;5115384;28;19919;-77
2022/01/01 00:23:15;;;;;;;;;;;13.40;99.90;;;;;;5114584;28;19908;-77
2022/01/01 00:25:41;;;;;;;;;;;13.40;99.90;;;;;;5115414;28;19915;-79
2022/01/01 00:28:07;;;;;;;;;;;13.50;99.90;;;;;;5114366;28;19914;-76
2022/01/01 00:30:32;;;;;;;;;;;13.50;99.90;;;;;;5115629;28;19908;-76
2022/01/01 00:32:58;;;;;;;;;;;13.60;99.90;;;;;;5115176;28;19915;-76
2022/01/01 00:35:23;;;;;;;;;;;13.70;99.90;;;;;;5114431;28;20441;-76
2022/01/01 00:37:49;;;;;;;;;;;13.70;99.90;;;;;;5115069;28;20007;-76
2022/01/01 00:40:15;;;;;;;;;;;13.70;99.90;;;;;;5114347;28;19908;-76
2022/01/01 00:42:40;;;;;;;;;;;13.80;99.90;;;;;;5113737;28;19908;-76
2022/01/01 00:45:06;;;;;;;;;;;13.80;99.90;;;;;;5114512;28;19915;-77
2022/01/01 00:47:32;;;;;;;;;;;13.80;99.90;;;;;;5114776;28;19914;-77
2022/01/01 00:49:58;;;;;;;;;;;13.80;99.90;;;;;;5114482;28;19908;-76
2022/01/01 00:52:23;;;;;;;;;;;13.90;99.90;;;;;;5112847;28;19908;-76
2022/01/01 00:54:49;;;;;;;;;;;13.90;99.90;;;;;;5114805;28;19920;-76
2022/01/01 00:57:14;;;;;;;;;;;13.80;99.90;;;;;;5126236;27;19963;-76
2022/01/01 00:59:40;;;;;;;;;;;13.80;99.90;;;;;;5134890;27;19916;-76
2022/01/01 01:02:05;;;;;;;;;;;13.80;99.90;;;;;;5116323;27;19908;-77
2022/01/01 01:04:31;;;;;;;;;;;13.80;99.90;;;;;;5135095;27;19908;-77
2022/01/01 01:06:57;;;;;;;;;;;13.80;99.90;;;;;;5138003;27;20351;-76
2022/01/01 01:09:22;;;;;;;;;;;13.80;99.90;;;;;;5154381;27;20138;-77
2022/01/01 01:11:51;;;;;;;;;;;13.80;99.90;;;;;;5156007;27;19926;-76
2022/01/01 01:14:22;;;;;;;;;;;13.80;99.90;;;;;;5155152;27;20006;-75
2022/01/01 01:16:48;;;;;;;;;;;13.70;99.90;;;;;;5156497;27;19911;-76
2022/01/01 01:19:14;;;;;;;;;;;13.70;99.90;;;;;;5155605;27;19907;-75
2022/01/01 01:21:40;;;;;;;;;;;13.70;99.90;;;;;;5155456;27;19918;-76
2022/01/01 01:24:05;;;;;;;;;;;13.70;99.90;;;;;;5155516;27;20332;-76
2022/01/01 01:26:31;;;;;;;;;;;13.70;99.90;;;;;;5156215;27;20002;-76
2022/01/01 01:28:57;;;;;;;;;;;13.80;99.90;;;;;;5155947;27;19907;-76
2022/01/01 01:31:24;;;;;;;;;;;13.70;99.90;;;;;;5154956;27;20488;-75
2022/01/01 01:33:50;;;;;;;;;;;13.70;99.90;;;;;;5155898;27;19948;-76
2022/01/01 01:36:16;;;;;;;;;;;13.70;99.90;;;;;;5155285;27;20003;-75
2022/01/01 01:38:41;;;;;;;;;;;13.70;99.90;;;;;;5155907;27;20352;-74
2022/01/01 01:41:08;;;;;;;;;;;13.60;99.90;;;;;;5155160;27;19915;-74
2022/01/01 01:43:34;;;;;;;;;;;13.60;99.90;;;;;;5155543;27;20360;-74
2022/01/01 01:46:04;;;;;;;;;;;13.60;99.90;;;;;;5155722;27;20005;-75
2022/01/01 01:48:33;;;;;;;;;;;13.60;99.90;;;;;;5146398;27;19911;-75
2022/01/01 01:50:59;;;;;;;;;;;13.60;99.90;;;;;;5135033;27;19911;-75
2022/01/01 01:53:25;;;;;;;;;;;13.60;99.90;;;;;;5134133;27;20134;-75
2022/01/01 01:55:51;;;;;;;;;;;13.60;99.90;;;;;;5134841;27;20023;-76
2022/01/01 01:58:17;;;;;;;;;;;13.60;99.90;;;;;;5115153;27;20010;-75
2022/01/01 02:03:23;;;;;;;;;;;13.70;99.90;;;;;;5133817;27;20360;-75
2022/01/01 02:05:49;;;;;;;;;;;13.70;99.90;;;;;;5134465;27;19907;-75
2022/01/01 02:08:16;;;;;;;;;;;13.60;99.90;;;;;;5133875;27;19952;-76
2022/01/01 02:10:41;;;;;;;;;;;13.70;99.90;;;;;;5134428;27;19914;-75
2022/01/01 02:13:15;;;;;;;;;;;13.60;99.90;;;;;;5133955;27;19908;-75
2022/01/01 02:16:26;;;;;;;;;;;13.60;99.90;;;;;;5134260;27;19915;-75
2022/01/01 02:18:27;;;;;;;;;;;13.70;99.90;;;;;;5132832;27;20523;-75
2022/01/01 02:20:55;;;;;;;;;;;13.70;99.90;;;;;;5134304;27;19907;-75
2022/01/01 02:23:22;;;;;;;;;;;13.70;99.90;;;;;;5133523;27;19973;-75
2022/01/01 02:25:49;;;;;;;;;;;13.70;99.90;;;;;;5134022;27;20280;-76
2022/01/01 02:28:14;;;;;;;;;;;13.70;99.90;;;;;;5133306;27;19907;-76
2022/01/01 02:30:40;;;;;;;;;;;13.80;99.90;;;;;;5134217;27;19918;-76
2022/01/01 02:33:06;;;;;;;;;;;13.80;99.90;;;;;;5133808;27;19915;-76
2022/01/01 02:35:31;;;;;;;;;;;13.90;99.90;;;;;;5133055;27;19916;-76
2022/01/01 02:37:57;;;;;;;;;;;13.80;99.90;;;;;;5115848;27;19907;-76
2022/01/01 02:40:22;;;;;;;;;;;13.70;99.90;;;;;;5133236;27;19907;-76
2022/01/01 02:42:48;;;;;;;;;;;13.70;99.90;;;;;;5133663;27;19959;-76
2022/01/01 02:45:14;;;;;;;;;;;13.70;99.90;;;;;;5133223;27;19912;-76
2022/01/01 02:47:40;;;;;;;;;;;13.70;99.90;;;;;;5133863;27;19911;-76
2022/01/01 02:50:06;;;;;;;;;;;13.70;99.90;;;;;;5133479;27;19943;-76
2022/01/01 02:52:32;;;;;;;;;;;13.60;99.90;;;;;;5133090;27;20209;-76
2022/01/01 02:54:57;;;;;;;;;;;13.70;99.90;;;;;;5133756;27;20370;-76
2022/01/01 02:57:23;;;;;;;;;;;13.70;99.90;;;;;;5132735;27;19926;-76
2022/01/01 02:59:49;;;;;;;;;;;13.90;99.90;;;;;;5136467;27;19911;-76
2022/01/01 03:02:15;;;;;;;;;;;14.00;99.90;;;;;;5153455;27;19907;-77
2022/01/01 03:04:41;;;;;;;;;;;14.20;99.90;;;;;;5154313;27;19908;-76
2022/01/01 03:07:07;;;;;;;;;;;14.30;99.90;;;;;;5154400;27;19911;-75
2022/01/01 03:09:35;;;;;;;;;;;14.40;99.90;;;;;;5153213;27;19990;-75
2022/01/01 03:12:08;;;;;;;;;;;14.50;99.90;;;;;;5135772;27;19931;-76
2022/01/01 03:14:33;;;;;;;;;;;14.50;99.90;;;;;;5153411;27;20280;-76
2022/01/01 03:16:59;;;;;;;;;;;14.60;99.90;;;;;;5154041;27;20371;-76
2022/01/01 03:19:25;;;;;;;;;;;14.50;99.90;;;;;;5153196;27;20051;-76
2022/01/01 03:21:51;;;;;;;;;;;14.50;99.90;;;;;;5154147;27;19908;-76
2022/01/01 03:24:16;;;;;;;;;;;14.60;99.90;;;;;;5134813;27;19914;-76
2022/01/01 03:26:42;;;;;;;;;;;14.60;99.90;;;;;;5154198;27;19990;-76
2022/01/01 03:29:08;;;;;;;;;;;14.60;99.90;;;;;;5153754;27;19998;-76
2022/01/01 03:31:33;;;;;;;;;;;14.60;99.90;;;;;;5153363;27;19929;-76
2022/01/01 03:33:59;;;;;;;;;;;14.50;99.90;;;;;;5153782;27;20303;-76
2022/01/01 03:36:25;;;;;;;;;;;14.60;99.90;;;;;;5144537;27;19911;-76
2022/01/01 03:38:51;;;;;;;;;;;14.50;99.90;;;;;;5133280;28;19914;-74
2022/01/01 03:41:17;;;;;;;;;;;14.50;99.90;;;;;;5132515;28;19907;-75
2022/01/01 03:43:43;;;;;;;;;;;14.50;99.90;;;;;;5114930;28;20029;-75
2022/01/01 03:46:08;;;;;;;;;;;14.50;99.90;;;;;;5136160;27;19998;-75
2022/01/01 03:48:34;;;;;;;;;;;14.50;99.90;;;;;;5136320;27;19911;-75
2022/01/01 03:51:00;;;;;;;;;;;14.60;99.90;;;;;;5137438;27;19912;-75
2022/01/01 03:53:25;;;;;;;;;;;14.60;99.90;;;;;;5144545;27;19943;-74
2022/01/01 03:55:51;;;;;;;;;;;14.60;99.90;;;;;;5147673;27;19916;-74
2022/01/01 03:58:17;;;;;;;;;;;14.60;99.90;;;;;;5142233;27;20098;-74
2022/01/01 04:00:43;;;;;;;;;;;14.60;99.90;;;;;;5136748;27;19907;-75
2022/01/01 04:03:09;;;;;;;;;;;14.60;99.90;;;;;;5136700;27;20360;-75
2022/01/01 04:05:35;;;;;;;;;;;14.60;99.90;;;;;;5117798;27;20512;-76
2022/01/01 04:08:02;;;;;;;;;;;14.60;99.90;;;;;;5136979;27;19930;-75
2022/01/01 04:10:29;;;;;;;;;;;14.60;99.90;;;;;;5136146;27;19953;-75
2022/01/01 04:12:54;;;;;;;;;;;14.60;99.90;;;;;;5136593;27;19911;-75
2022/01/01 04:15:20;;;;;;;;;;;14.60;99.90;;;;;;5135861;27;19920;-75
2022/01/01 04:17:45;;;;;;;;;;;14.50;99.90;;;;;;5136557;27;20416;-75
2022/01/01 04:20:11;;;;;;;;;;;14.50;99.90;;;;;;5136792;27;19930;-75
2022/01/01 04:22:36;;;;;;;;;;;14.50;99.90;;;;;;5135989;27;19986;-75
2022/01/01 04:25:02;;;;;;;;;;;14.60;99.90;;;;;;5137114;27;19908;-76
2022/01/01 04:27:28;;;;;;;;;;;14.60;99.90;;;;;;5135717;27;19907;-75
2022/01/01 04:29:54;;;;;;;;;;;14.60;99.90;;;;;;5136640;27;19907;-75
2022/01/01 04:32:19;;;;;;;;;;;14.70;99.90;;;;;;5117345;27;20437;-75
2022/01/01 04:34:45;;;;;;;;;;;14.70;99.90;;;;;;5136357;27;20356;-75
2022/01/01 04:37:13;;;;;;;;;;;14.80;99.90;;;;;;5136338;27;20276;-75
2022/01/01 04:39:38;;;;;;;;;;;14.80;99.90;;;;;;5135449;27;20134;-75
2022/01/01 04:42:04;;;;;;;;;;;14.70;99.90;;;;;;5135973;27;19911;-75
2022/01/01 04:44:30;;;;;;;;;;;14.70;99.90;;;;;;5135548;27;19911;-75
2022/01/01 04:46:55;;;;;;;;;;;14.60;99.90;;;;;;5136231;27;20431;-75
2022/01/01 04:49:22;;;;;;;;;;;14.60;99.90;;;;;;5134953;27;20268;-75
2022/01/01 04:51:48;;;;;;;;;;;14.60;99.90;;;;;;5136076;27;20005;-76
2022/01/01 04:54:17;;;;;;;;;;;14.50;99.90;;;;;;5135955;27;19919;-75
2022/01/01 04:56:44;;;;;;;;;;;14.60;99.90;;;;;;5134180;27;20368;-75
2022/01/01 04:59:10;;;;;;;;;;;14.50;99.90;;;;;;5136100;27;19911;-75
2022/01/01 05:01:36;;;;;;;;;;;14.50;99.90;;;;;;5134813;27;19946;-76
2022/01/01 05:04:02;;;;;;;;;;;14.40;99.90;;;;;;5136055;27;19907;-76
2022/01/01 05:06:28;;;;;;;;;;;14.40;99.90;;;;;;5134964;27;19941;-76
2022/01/01 05:08:53;;;;;;;;;;;14.30;99.90;;;;;;5135627;27;19932;-76
2022/01/01 05:11:19;;;;;;;;;;;14.30;99.90;;;;;;5135639;27;19911;-76
2022/01/01 05:13:44;;;;;;;;;;;14.20;99.90;;;;;;5135486;27;19908;-76
2022/01/01 05:16:15;;;;;;;;;;;14.20;99.90;;;;;;5135759;27;20388;-77
2022/01/01 05:18:40;;;;;;;;;;;14.20;99.90;;;;;;5134843;27;19908;-76
2022/01/01 05:21:06;;;;;;;;;;;14.20;99.90;;;;;;5135685;27;19908;-77
2022/01/01 05:23:32;;;;;;;;;;;14.20;99.90;;;;;;5134686;27;20348;-77
2022/01/01 05:25:57;;;;;;;;;;;14.30;99.90;;;;;;5135305;27;19914;-77
2022/01/01 05:28:23;;;;;;;;;;;14.30;99.90;;;;;;5141116;27;19907;-77
2022/01/01 05:30:49;;;;;;;;;;;14.30;99.90;;;;;;5143153;27;19919;-77
2022/01/01 05:33:15;;;;;;;;;;;14.30;99.90;;;;;;5135470;27;19912;-79
2022/01/01 05:35:41;;;;;;;;;;;14.30;99.90;;;;;;5134697;27;19911;-78
2022/01/01 05:38:07;;;;;;;;;;;14.30;99.90;;;;;;5135258;27;19914;-78
2022/01/01 05:40:32;;;;;;;;;;;14.30;99.90;;;;;;5134232;27;19907;-78
2022/01/01 05:42:58;;;;;;;;;;;14.30;99.90;;;;;;5135121;27;19947;-78
2022/01/01 05:45:23;;;;;;;;;;;14.40;99.90;;;;;;5134508;27;19907;-78
2022/01/01 05:47:49;;;;;;;;;;;14.50;99.90;;;;;;5134957;27;20294;-78
2022/01/01 05:50:14;;;;;;;;;;;14.50;99.90;;;;;;5132765;27;19907;-78
2022/01/01 05:52:40;;;;;;;;;;;14.50;99.90;;;;;;5134130;27;20696;-78
2022/01/01 05:55:06;;;;;;;;;;;14.50;99.90;;;;;;5134918;27;20355;-78
2022/01/01 05:57:31;;;;;;;;;;;14.60;99.90;;;;;;5133822;27;20024;-77
2022/01/01 05:59:57;;;;;;;;;;;14.50;99.90;;;;;;5134063;27;19911;-77
2022/01/01 06:02:22;;;;;;;;;;;14.50;99.90;;;;;;5134398;27;19913;-76
2022/01/01 06:04:48;;;;;;;;;;;14.50;99.90;;;;;;5134584;27;20245;-76
2022/01/01 06:07:14;;;;;;;;;;;14.50;99.90;;;;;;5134339;27;20352;-79
2022/01/01 06:09:39;;;;;;;;;;;14.50;99.90;;;;;;5133413;27;19919;-78
2022/01/01 06:12:05;;;;;;;;;;;14.60;99.90;;;;;;5134828;27;19960;-78
2022/01/01 06:14:30;;;;;;;;;;;14.70;99.90;;;;;;5133688;27;19919;-77
2022/01/01 06:16:56;;;;;;;;;;;14.70;99.90;;;;;;5116128;27;20264;-77
2022/01/01 06:19:22;;;;;;;;;;;14.70;99.90;;;;;;5133853;27;19958;-77
2022/01/01 06:21:47;;;;;;;;;;;14.70;99.90;;;;;;5133430;27;19915;-77
2022/01/01 06:24:13;;;;;;;;;;;14.70;99.90;;;;;;5115994;27;19907;-77
2022/01/01 06:26:38;;;;;;;;;;;14.70;99.90;;;;;;5115119;27;19907;-75
2022/01/01 06:29:04;;;;;;;;;;;14.70;99.90;;;;;;5134764;27;19943;-75
2022/01/01 06:31:30;;;;;;;;;;;14.70;99.90;;;;;;5133150;27;19911;-76
2022/01/01 06:33:55;;;;;;;;;;;14.60;99.90;;;;;;5134027;27;20267;-75
2022/01/01 06:36:21;;;;;;;;;;;14.60;99.90;;;;;;5134170;27;19918;-76
2022/01/01 06:38:47;;;;;;;;;;;14.60;99.90;;;;;;5132665;27;20367;-76
2022/01/01 06:41:12;;;;;;;;;;;14.60;99.90;;;;;;5133973;27;19907;-76
2022/01/01 06:43:38;;;;;;;;;;;14.60;99.90;;;;;;5133240;27;19929;-77
2022/01/01 06:46:07;;;;;;;;;;;14.60;99.90;;;;;;5133921;27;19914;-76
2022/01/01 06:48:34;;;;;;;;;;;14.50;99.90;;;;;;5133229;27;19953;-76
2022/01/01 06:51:00;;;;;;;;;;;14.40;99.90;;;;;;5133858;27;20299;-77
2022/01/01 06:53:26;;;;;;;;;;;14.40;99.90;;;;;;5133301;27;19907;-77
2022/01/01 06:55:51;;;;;;;;;;;14.40;99.90;;;;;;5133345;27;19984;-76
2022/01/01 06:58:17;;;;;;;;;;;14.40;99.90;;;;;;5133828;27;20443;-76
2022/01/01 07:00:43;;;;;;;;;;;14.30;99.90;;;;;;5132916;27;19916;-75
2022/01/01 07:03:08;;;;;;;;;;;14.30;99.90;;;;;;5133619;27;20010;-77
2022/01/01 07:05:34;;;;;;;;;;;14.30;99.90;;;;;;5114508;27;20343;-77
2022/01/01 07:07:59;;;;;;;;;;;14.20;99.90;;;;;;5133992;27;19911;-77
2022/01/01 07:10:25;;;;;;;;;;;14.20;99.90;;;;;;5133485;27;19907;-77
2022/01/01 07:12:51;;;;;;;;;;;14.10;99.90;;;;;;5145133;27;19915;-76
2022/01/01 07:15:16;;;;;;;;;;;14.10;99.90;;;;;;5154367;27;19923;-76
2022/01/01 07:17:42;;;;;;;;;;;14.20;99.90;;;;;;5153709;27;19907;-77
2022/01/01 07:20:08;;;;;;;;;;;14.10;99.90;;;;;;5153549;27;20241;-77
2022/01/01 07:22:44;;;;;;;;;;;14.20;99.90;;;;;;5153321;27;19914;-77
2022/01/01 07:25:10;;;;;;;;;;;14.10;99.90;;;;;;5135869;27;19930;-77
2022/01/01 07:27:36;;;;;;;;;;;14.10;99.90;;;;;;5153382;27;19960;-77
2022/01/01 07:30:02;;;;;;;;;;;14.10;99.90;;;;;;5154108;27;19907;-77
2022/01/01 07:32:28;;;;;;;;;;;14.00;99.90;;;;;;5154023;27;19953;-76
2022/01/01 07:34:55;;;;;;;;;;;14.00;99.90;;;;;;5152593;27;19958;-77
2022/01/01 07:37:20;;;;;;;;;;;14.00;99.90;;;;;;5153548;27;19911;-76
2022/01/01 07:39:46;;;;;;;;;;;13.90;99.90;;;;;;5153133;27;19911;-77
2022/01/01 07:42:14;;;;;;;;;;;13.90;99.90;;;;;;5154119;27;19933;-77
2022/01/01 07:44:40;;;;;;;;;;;13.80;99.90;;;;;;5153267;27;19961;-77
2022/01/01 07:47:06;;;;;;;;;;;13.80;99.90;;;;;;5153939;27;19907;-76
2022/01/01 07:49:32;;;;;;;;;;;13.80;99.90;;;;;;5134231;27;20415;-76
2022/01/01 07:51:58;;;;;;;;;;;13.70;99.90;;;;;;5135333;27;19911;-77
2022/01/01 07:54:23;;;;;;;;;;;13.60;99.90;;;;;;5153604;27;20292;-76
2022/01/01 07:56:49;;;;;;;;;;;13.60;99.90;;;;;;5152820;27;20728;-76
2022/01/01 07:59:15;;;;;;;;;;;13.60;99.90;;;;;;5153909;27;19967;-76
2022/01/01 08:01:43;;;;;;;;;;;13.50;99.90;;;;;;5153092;27;20450;-77
2022/01/01 08:04:09;;;;;;;;;;;13.40;99.90;;;;;;5154399;27;20275;-77
2022/01/01 08:06:34;;;;;;;;;;;13.40;99.90;;;;;;5176539;27;19911;-77
2022/01/01 08:09:00;;;;;;;;;;;13.40;99.90;;;;;;5177060;27;19958;-76
2022/01/01 08:11:26;;;;;;;;;;;13.40;99.90;;;;;;5156310;27;19911;-77
2022/01/01 08:13:52;;;;;;;;;;;13.40;99.90;;;;;;5152865;27;20392;-77
2022/01/01 08:16:17;;;;;;;;;;;13.30;99.90;;;;;;5153639;27;20347;-77
2022/01/01 08:18:43;;;;;;;;;;;13.30;99.90;;;;;;5152743;27;19914;-76
2022/01/01 08:21:08;;;;;;;;;;;13.30;99.90;;;;;;5153439;27;19907;-76
2022/01/01 08:23:34;;;;;;;;;;;13.20;99.90;;;;;;5151606;27;19914;-77
2022/01/01 08:26:00;;;;;;;;;;;13.10;99.90;;;;;;5132577;28;20375;-77
2022/01/01 08:28:25;;;;;;;;;;;13.10;99.90;;;;;;5132896;28;19931;-77
2022/01/01 08:30:51;;;;;;;;;;;13.10;99.90;;;;;;5132999;27;19907;-77
2022/01/01 08:33:17;;;;;;;;;;;13.00;99.90;;;;;;5140518;27;19911;-76
2022/01/01 08:35:42;;;;;;;;;;;13.00;99.90;;;;;;5156221;27;20352;-77
2022/01/01 08:38:08;;;;;;;;;;;13.00;99.90;;;;;;5156826;27;19951;-76
2022/01/01 08:40:34;;;;;;;;;;;12.90;99.90;;;;;;5156835;27;19913;-77
2022/01/01 08:43:00;;;;;;;;;;;12.80;99.90;;;;;;5156194;27;20324;-76
2022/01/01 08:45:25;;;;;;;;;;;12.80;99.90;;;;;;5156890;27;19953;-78
2022/01/01 08:47:51;;;;;;;;;;;12.80;99.90;;;;;;5155887;27;19910;-77
2022/01/01 08:50:17;;;;;;;;;;;12.90;99.90;;;;;;5156897;27;19947;-78
2022/01/01 08:52:43;;;;;;;;;;;12.80;99.90;;;;;;5155977;27;19914;-77
2022/01/01 08:55:09;;;;;;;;;;;12.80;99.90;;;;;;5156835;27;20318;-77
2022/01/01 08:57:35;;;;;;;;;;;12.80;99.90;;;;;;5156474;27;19919;-77
2022/01/01 09:00:02;;;;;;;;;;;12.80;99.90;;;;;;5152725;27;19993;-78
2022/01/01 09:02:28;;;;;;;;;;;12.80;99.90;;;;;;5147100;27;19907;-78
2022/01/01 09:04:53;;;;;;;;;;;12.80;99.90;;;;;;5145867;27;20328;-78
2022/01/01 09:07:19;;;;;;;;;;;12.80;99.90;;;;;;5152361;27;19907;-78
2022/01/01 09:09:45;;;;;;;;;;;12.70;99.90;;;;;;5155697;27;19911;-77
2022/01/01 09:12:11;;;;;;;;;;;12.60;99.90;;;;;;5156375;27;19960;-79
2022/01/01 09:14:37;;;;;;;;;;;12.70;99.90;;;;;;5155701;27;20355;-77
2022/01/01 09:17:06;;;;;;;;;;;12.60;99.90;;;;;;5155847;27;20328;-77
2022/01/01 09:19:32;;;;;;;;;;;12.60;99.90;;;;;;5157036;27;19980;-78
2022/01/01 09:21:58;;;;;;;;;;;12.60;99.90;;;;;;5152126;27;20364;-78
2022/01/01 09:24:23;;;;;;;;;;;12.70;99.90;;;;;;5142408;27;19918;-76
2022/01/01 09:26:49;;;;;;;;;;;12.70;99.90;;;;;;5148173;27;19934;-76
2022/01/01 09:29:14;;;;;;;;;;;12.70;99.90;;;;;;5144259;27;19907;-76
2022/01/01 09:31:41;;;;;;;;;;;12.70;99.90;;;;;;5143187;27;19970;-75
2022/01/01 09:34:08;;;;;;;;;;;12.70;99.90;;;;;;5141711;27;19915;-76
2022/01/01 09:36:34;;;;;;;;;;;12.70;99.90;;;;;;5140929;27;19970;-76
2022/01/01 09:38:59;;;;;;;;;;;12.80;99.90;;;;;;5115730;27;19908;-76
2022/01/01 09:41:25;;;;;;;;;;;12.70;99.90;;;;;;5135292;27;19914;-77
2022/01/01 09:43:52;;;;;;;;;;;12.80;99.90;;;;;;5141499;27;19957;-77
2022/01/01 09:46:18;;;;;;;;;;;12.80;99.90;;;;;;5156394;27;19912;-76
2022/01/01 09:48:44;;;;;;;;;;;12.80;99.90;;;;;;5135094;27;20387;-77
2022/01/01 09:51:09;;;;;;;;;;;12.80;99.90;;;;;;5135293;27;20127;-77
2022/01/01 09:53:35;;;;;;;;;;;12.80;99.90;;;;;;5134358;27;20431;-77
2022/01/01 09:56:03;;;;;;;;;;;12.80;99.90;;;;;;5134463;27;20793;-77
2022/01/01 09:58:30;;;;;;;;;;;12.80;99.90;;;;;;5133954;27;19919;-77
2022/01/01 10:00:56;;;;;;;;;;;12.70;99.90;;;;;;5133223;27;19915;-77
2022/01/01 10:03:44;;;;;;;;;;;12.70;99.90;;;;;;5134019;27;20328;-77
2022/01/01 10:06:12;;;;;;;;;;;12.70;99.90;;;;;;5133834;27;19907;-76
2022/01/01 10:08:39;;;;;;;;;;;12.80;99.90;;;;;;5133630;27;19908;-77
2022/01/01 10:11:05;;;;;;;;;;;12.80;99.90;;;;;;5133962;27;19998;-77
2022/01/01 10:13:32;;;;;;;;;;;12.80;99.90;;;;;;5138733;27;19911;-77
2022/01/01 10:15:58;;;;;;;;;;;12.80;99.90;;;;;;5140848;27;19927;-76
2022/01/01 10:18:27;;;;;;;;;;;12.80;99.90;;;;;;5137742;27;20368;-75
2022/01/01 10:21:00;;;;;;;;;;;12.80;99.90;;;;;;5139738;27;19912;-76
2022/01/01 10:23:29;;;;;;;;;;;12.80;99.90;;;;;;5141152;27;20364;-76
2022/01/01 10:29:14;;;;;;;;;;;12.80;99.90;;;;;;5146095;27;19913;-76
2022/01/01 10:31:52;;;;;;;;;;;12.80;99.90;;;;;;5133594;27;20315;-76
2022/01/01 10:34:18;;;;;;;;;;;12.80;99.90;;;;;;5133404;27;19942;-77
2022/01/01 10:36:45;;;;;;;;;;;12.80;99.90;;;;;;5132926;27;19914;-77
2022/01/01 10:39:12;;;;;;;;;;;12.80;99.90;;;;;;5133536;27;20264;-76
2022/01/01 10:42:03;;;;;;;;;;;12.80;99.90;;;;;;5134051;27;19911;-76
2022/01/01 10:44:28;;;;;;;;;;;12.80;99.90;;;;;;5133901;27;19914;-77
2022/01/01 10:46:54;;;;;;;;;;;12.90;99.90;;;;;;5133022;27;19907;-76
2022/01/01 10:49:37;;;;;;;;;;;12.90;99.90;;;;;;5149110;27;20418;-77
2022/01/01 10:52:23;;;;;;;;;;;12.90;99.90;;;;;;5142179;27;20482;-76
2022/01/01 10:54:50;;;;;;;;;;;12.90;99.90;;;;;;5133845;27;20010;-76
2022/01/01 10:57:24;;;;;;;;;;;12.90;99.90;;;;;;5133138;27;19984;-76
2022/01/01 10:59:50;;;;;;;;;;;12.90;99.90;;;;;;5132842;27;19915;-76
2022/01/01 11:02:19;;;;;;;;;;;13.00;99.90;;;;;;5133570;27;19994;-76
2022/01/01 11:04:45;;;;;;;;;;;13.00;99.90;;;;;;5132970;27;19907;-76
2022/01/01 11:07:10;;;;;;;;;;;13.10;99.90;;;;;;5133264;27;19994;-76
2022/01/01 11:09:36;;;;;;;;;;;13.10;99.90;;;;;;5133682;27;19907;-76
2022/01/01 11:12:03;;;;;;;;;;;13.10;99.90;;;;;;5114250;27;20171;-77
2022/01/01 11:14:32;;;;;;;;;;;13.10;99.90;;;;;;5133223;27;20274;-76
2022/01/01 11:17:01;;;;;;;;;;;13.10;99.90;;;;;;5132328;27;20002;-76
2022/01/01 11:19:26;;;;;;;;;;;13.00;99.90;;;;;;5133056;28;19908;-74
2022/01/01 11:21:55;;;;;;;;;;;13.00;99.90;;;;;;5132468;28;20263;-76
2022/01/01 11:24:22;;;;;;;;;;;13.10;99.90;;;;;;5140495;27;19911;-77
2022/01/01 11:26:48;;;;;;;;;;;13.10;99.90;;;;;;5141874;27;19916;-76
2022/01/01 11:29:14;;;;;;;;;;;13.10;99.90;;;;;;5134519;27;19952;-77
2022/01/01 11:31:41;;;;;;;;;;;13.10;99.90;;;;;;5132534;28;20006;-77
2022/01/01 11:34:07;;;;;;;;;;;13.10;99.90;;;;;;5132447;28;19915;-77
2022/01/01 11:36:33;;;;;;;;;;;13.10;99.90;;;;;;5133453;28;19907;-77
2022/01/01 11:39:02;;;;;;;;;;;13.10;99.90;;;;;;5132157;28;20280;-77
2022/01/01 11:41:37;;;;;;;;;;;13.10;99.90;;;;;;5114891;28;20248;-77
2022/01/01 11:44:02;;;;;;;;;;;13.20;99.90;;;;;;5132309;28;19907;-77
2022/01/01 11:46:29;;;;;;;;;;;13.20;99.90;;;;;;5132883;28;19960;-77
2022/01/01 11:48:56;;;;;;;;;;;13.10;99.90;;;;;;5132387;28;20267;-77
2022/01/01 11:51:23;;;;;;;;;;;13.20;99.90;;;;;;5133040;28;19914;-77
2022/01/01 11:54:08;;;;;;;;;;;13.20;99.90;;;;;;5132168;28;19915;-76
2022/01/01 11:56:59;;;;;;;;;;;13.20;99.90;;;;;;5132904;28;19916;-76
2022/01/01 11:59:37;;;;;;;;;;;13.20;99.90;;;;;;5128606;28;20319;-76
2022/01/01 12:02:12;;;;;;;;;;;13.30;99.90;;;;;;5132560;28;19915;-76
2022/01/01 12:04:38;;;;;;;;;;;13.30;99.90;;;;;;5133028;28;19907;-76
2022/01/01 12:07:12;;;;;;;;;;;13.30;99.90;;;;;;5134584;27;19964;-77
2022/01/01 12:09:57;;;;;;;;;;;13.30;99.90;;;;;;5118480;27;19908;-77
2022/01/01 12:12:37;;;;;;;;;;;13.30;99.90;;;;;;5137134;27;19954;-77
2022/01/01 12:15:03;;;;;;;;;;;13.30;99.90;;;;;;5135904;27;19961;-77
2022/01/01 12:17:39;;;;;;;;;;;13.30;99.90;;;;;;5136410;27;19919;-78
2022/01/01 12:20:10;;;;;;;;;;;13.30;99.90;;;;;;5136197;27;19946;-78
2022/01/01 12:22:37;;;;;;;;;;;13.30;99.90;;;;;;5118248;27;19914;-77
2022/01/01 12:25:03;;;;;;;;;;;13.30;99.90;;;;;;5135732;27;19907;-77
2022/01/01 12:27:39;;;;;;;;;;;13.40;99.90;;;;;;5135895;27;19914;-77
2022/01/01 12:30:05;;;;;;;;;;;13.30;99.90;;;;;;5135220;27;20325;-77
2022/01/01 12:32:37;;;;;;;;;;;13.30;99.90;;;;;;5136688;27;20379;-77
2022/01/01 12:35:07;;;;;;;;;;;13.30;99.90;;;;;;5135501;27;19940;-77
2022/01/01 12:37:37;;;;;;;;;;;13.30;99.90;;;;;;5135545;27;19915;-78
2022/01/01 12:40:05;;;;;;;;;;;13.40;99.90;;;;;;5135446;27;19952;-78
2022/01/01 12:42:34;;;;;;;;;;;13.40;99.90;;;;;;5136170;27;20005;-76
2022/01/01 12:45:01;;;;;;;;;;;13.40;99.90;;;;;;5135167;27;19912;-76
2022/01/01 12:47:27;;;;;;;;;;;13.40;99.90;;;;;;5143962;27;19911;-76
2022/01/01 12:49:54;;;;;;;;;;;13.40;99.90;;;;;;5143266;27;19994;-75
2022/01/01 12:52:23;;;;;;;;;;;13.50;99.90;;;;;;5155460;27;19959;-76
2022/01/01 12:54:51;;;;;;;;;;;13.40;99.90;;;;;;5152995;27;19915;-76
2022/01/01 12:57:18;;;;;;;;;;;13.40;99.90;;;;;;5145743;27;19971;-76
2022/01/01 12:59:45;;;;;;;;;;;13.40;99.90;;;;;;5144102;27;19911;-77
2022/01/01 13:02:11;;;;;;;;;;;13.50;99.90;;;;;;5134829;27;19971;-79
2022/01/01 13:04:36;;;;;;;;;;;13.40;99.90;;;;;;5143774;27;19915;-75
2022/01/01 13:07:03;;;;;;;;;;;13.50;99.90;;;;;;5145615;27;20426;-76
2022/01/01 13:09:29;;;;;;;;;;;13.40;99.90;;;;;;5144704;27;19990;-76
2022/01/01 13:11:59;;;;;;;;;;;13.40;99.90;;;;;;5144762;27;20022;-76
2022/01/01 13:14:25;;;;;;;;;;;13.50;99.90;;;;;;5143602;27;20375;-76
2022/01/01 13:16:50;;;;;;;;;;;13.40;99.90;;;;;;5124013;27;20010;-76
2022/01/01 13:19:16;;;;;;;;;;;13.30;99.90;;;;;;5140975;27;19999;-78
2022/01/01 13:21:42;;;;;;;;;;;13.30;99.90;;;;;;5126534;27;19997;-78
2022/01/01 13:24:09;;;;;;;;;;;13.30;99.90;;;;;;5145631;27;19968;-76
2022/01/01 13:26:35;;;;;;;;;;;13.40;99.90;;;;;;5141615;27;20352;-76
2022/01/01 13:29:02;;;;;;;;;;;13.40;99.90;;;;;;5142482;27;19915;-76
2022/01/01 13:31:29;;;;;;;;;;;13.40;99.90;;;;;;5139254;27;19919;-76
2022/01/01 13:33:55;;;;;;;;;;;13.40;99.90;;;;;;5144541;27;19907;-76
2022/01/01 13:36:28;;;;;;;;;;;13.40;99.90;;;;;;5142117;27;19959;-79
2022/01/01 13:38:54;;;;;;;;;;;13.40;99.90;;;;;;5140387;27;19968;-76
2022/01/01 13:41:19;;;;;;;;;;;13.40;99.90;;;;;;5142510;27;19911;-77
2022/01/01 13:43:45;;;;;;;;;;;13.40;99.90;;;;;;5146471;27;19907;-76
2022/01/01 13:46:11;;;;;;;;;;;13.40;99.90;;;;;;5151763;27;19907;-78
2022/01/01 13:48:42;;;;;;;;;;;13.40;99.90;;;;;;5154976;27;19918;-76
2022/01/01 13:51:08;;;;;;;;;;;13.40;99.90;;;;;;5148498;27;19918;-77
2022/01/01 13:53:34;;;;;;;;;;;13.40;99.90;;;;;;5145715;27;20268;-76
2022/01/01 13:56:03;;;;;;;;;;;13.40;99.90;;;;;;5143323;27;20009;-75
2022/01/01 13:58:29;;;;;;;;;;;13.30;99.90;;;;;;5154792;27;19919;-75
2022/01/01 14:00:56;;;;;;;;;;;13.30;99.90;;;;;;5154880;27;19914;-76
2022/01/01 14:03:23;;;;;;;;;;;13.30;99.90;;;;;;5155591;27;20328;-76
2022/01/01 14:05:50;;;;;;;;;;;13.30;99.90;;;;;;5155257;27;19913;-76
2022/01/01 14:08:19;;;;;;;;;;;13.30;99.90;;;;;;5154422;27;19963;-76
2022/01/01 14:10:54;;;;;;;;;;;13.30;99.90;;;;;;5154999;27;19950;-77
2022/01/01 14:13:30;;;;;;;;;;;13.20;99.90;;;;;;5154008;27;19911;-76
2022/01/01 14:15:56;;;;;;;;;;;13.20;99.90;;;;;;5150949;27;20010;-75
2022/01/01 14:18:26;;;;;;;;;;;13.20;99.90;;;;;;5140563;27;19911;-77
2022/01/01 14:20:53;;;;;;;;;;;13.20;99.90;;;;;;5141174;27;19915;-76